Time;durP1;ratioP1;P1;durP2;ratioP2;P2;SDS_P1;SDS_P2;PMS_P1;PMS_P2;Temp;Humidity;BMP_temperature;BMP_pressure;BME280_temperature;BME280_humidity;BME280_pressure;Samples;Min_cycle;Max_cycle;Signal;HPM_P1;HPM_P2
2022/07/18 00:02:24;;;;;;;1.77;1.37;;;;;;;;;;5067633;28;20181;-78
2022/07/18 00:04:50;;;;;;;1.97;1.47;;;;;;;;;;5069454;28;20272;-78
2022/07/18 00:07:16;;;;;;;3.23;1.53;;;;;;;;;;5051658;28;20851;-78
2022/07/18 00:09:43;;;;;;;2.60;1.70;;;;;;;;;;5066616;28;20220;-77
2022/07/18 00:12:11;;;;;;;2.30;1.80;;;;;;;;;;5069950;28;20236;-78
2022/07/18 00:14:37;;;;;;;3.57;1.80;;;;;;;;;;5049755;28;20177;-78
2022/07/18 00:17:04;;;;;;;2.37;2.03;;;;;;;;;;5068531;28;20205;-78
2022/07/18 00:19:31;;;;;;;1.60;1.50;;;;;;;;;;5068967;28;20212;-78
2022/07/18 00:21:57;;;;;;;2.57;1.70;;;;;;;;;;5067194;28;20658;-78
2022/07/18 00:24:23;;;;;;;3.10;1.80;;;;;;;;;;5070960;28;20649;-78
2022/07/18 00:26:49;;;;;;;1.77;1.60;;;;;;;;;;5052705;28;20181;-78
2022/07/18 00:29:16;;;;;;;3.83;1.60;;;;;;;;;;5050906;28;20657;-78
2022/07/18 00:31:42;;;;;;;2.20;1.63;;;;;;;;;;5066924;28;20181;-78
2022/07/18 00:34:08;;;;;;;3.97;1.53;;;;;;;;;;5067294;28;20419;-78
2022/07/18 00:36:35;;;;;;;2.57;1.70;;;;;;;;;;5051099;28;20185;-78
2022/07/18 00:39:01;;;;;;;1.80;1.50;;;;;;;;;;5061194;28;20549;-78
2022/07/18 00:41:27;;;;;;;2.57;1.90;;;;;;;;;;5073627;28;20217;-78
2022/07/18 00:43:53;;;;;;;3.57;1.80;;;;;;;;;;5071462;28;20585;-78
2022/07/18 00:46:23;;;;;;;2.00;1.80;;;;;;;;;;5047066;28;20304;-77
2022/07/18 00:48:49;;;;;;;2.73;1.60;;;;;;;;;;5063590;28;20198;-78
2022/07/18 00:51:16;;;;;;;2.67;1.77;;;;;;;;;;5052403;22;20221;-76
2022/07/18 00:53:43;;;;;;;4.20;1.70;;;;;;;;;;5048631;28;20193;-75
2022/07/18 00:56:09;;;;;;;2.67;1.93;;;;;;;;;;5049938;28;20264;-76
2022/07/18 00:58:36;;;;;;;3.50;1.80;;;;;;;;;;5049117;28;20178;-76
2022/07/18 01:03:47;;;;;;;3.03;1.60;;;;;;;;;;5022005;28;20662;-76
2022/07/18 01:06:13;;;;;;;3.57;1.57;;;;;;;;;;5033414;28;20250;-76
2022/07/18 01:08:42;;;;;;;2.10;1.80;;;;;;;;;;5027409;28;20193;-76
2022/07/18 01:11:08;;;;;;;2.67;1.70;;;;;;;;;;5022679;28;20220;-76
2022/07/18 01:13:35;;;;;;;3.23;1.83;;;;;;;;;;5025062;28;20188;-76
2022/07/18 01:16:01;;;;;;;2.03;1.80;;;;;;;;;;5024919;28;20182;-76
2022/07/18 01:18:27;;;;;;;2.57;1.60;;;;;;;;;;5027657;28;20285;-76
2022/07/18 01:20:53;;;;;;;2.70;2.10;;;;;;;;;;5019502;28;20237;-76
2022/07/18 01:23:19;;;;;;;3.53;1.90;;;;;;;;;;5020002;28;20241;-76
2022/07/18 01:25:46;;;;;;;3.93;1.90;;;;;;;;;;5030215;28;20535;-76
2022/07/18 01:28:12;;;;;;;2.77;1.83;;;;;;;;;;5031092;28;20272;-76
2022/07/18 01:30:39;;;;;;;2.17;1.87;;;;;;;;;;5027700;28;20691;-76
2022/07/18 01:33:05;;;;;;;2.50;1.80;;;;;;;;;;5030752;28;20217;-76
2022/07/18 01:35:32;;;;;;;3.13;2.10;;;;;;;;;;5028520;28;20348;-76
2022/07/18 01:37:59;;;;;;;4.67;2.10;;;;;;;;;;5032501;28;20185;-76
2022/07/18 01:40:26;;;;;;;3.87;1.87;;;;;;;;;;5022456;28;20776;-76
2022/07/18 01:42:52;;;;;;;2.50;2.00;;;;;;;;;;5026761;28;20641;-76
2022/07/18 01:45:18;;;;;;;2.33;1.83;;;;;;;;;;5030723;28;20178;-76
2022/07/18 01:47:45;;;;;;;2.37;1.73;;;;;;;;;;5030216;28;20238;-76
2022/07/18 01:50:11;;;;;;;2.60;1.73;;;;;;;;;;5030439;28;20183;-76
2022/07/18 01:52:38;;;;;;;3.93;2.03;;;;;;;;;;5030948;28;20214;-76
2022/07/18 01:55:06;;;;;;;3.17;1.60;;;;;;;;;;5028372;28;20179;-76
2022/07/18 01:57:32;;;;;;;3.30;1.63;;;;;;;;;;5025503;28;20194;-76
2022/07/18 01:59:58;;;;;;;3.20;1.77;;;;;;;;;;5022637;28;20253;-75
2022/07/18 02:02:24;;;;;;;3.13;1.60;;;;;;;;;;5024411;28;20214;-75
2022/07/18 02:04:59;;;;;;;2.67;1.57;;;;;;;;;;5022369;28;20223;-76
2022/07/18 02:07:26;;;;;;;2.67;1.87;;;;;;;;;;5026359;28;20675;-75
2022/07/18 02:09:52;;;;;;;1.93;1.57;;;;;;;;;;5025613;28;20186;-76
2022/07/18 02:12:18;;;;;;;3.00;1.80;;;;;;;;;;5027972;28;20217;-76
2022/07/18 02:14:45;;;;;;;2.60;1.67;;;;;;;;;;5023873;28;20187;-76
2022/07/18 02:17:11;;;;;;;2.90;1.90;;;;;;;;;;5030208;28;20202;-76
2022/07/18 02:19:37;;;;;;;2.93;1.53;;;;;;;;;;5025793;28;20236;-76
2022/07/18 02:22:03;;;;;;;2.07;1.70;;;;;;;;;;5026056;28;20260;-75
2022/07/18 02:24:29;;;;;;;3.23;1.70;;;;;;;;;;5044146;28;20571;-76
2022/07/18 02:26:56;;;;;;;3.07;1.90;;;;;;;;;;5031585;28;20679;-76
2022/07/18 02:29:22;;;;;;;4.27;2.13;;;;;;;;;;5028030;28;20201;-76
2022/07/18 02:31:48;;;;;;;2.83;1.77;;;;;;;;;;5030801;28;20195;-76
2022/07/18 02:34:14;;;;;;;3.50;2.10;;;;;;;;;;5033118;28;20653;-76
2022/07/18 02:36:41;;;;;;;2.97;2.07;;;;;;;;;;5025174;28;20191;-77
2022/07/18 02:39:08;;;;;;;2.77;2.10;;;;;;;;;;5024887;28;20190;-76
2022/07/18 02:41:35;;;;;;;1.90;1.80;;;;;;;;;;5024295;28;20216;-76
2022/07/18 02:44:01;;;;;;;2.23;1.90;;;;;;;;;;5025801;28;20179;-76
2022/07/18 02:46:27;;;;;;;2.73;1.97;;;;;;;;;;5025706;28;20209;-76
2022/07/18 02:48:53;;;;;;;3.47;1.93;;;;;;;;;;5025941;28;20266;-76
2022/07/18 02:51:20;;;;;;;4.63;1.90;;;;;;;;;;5026611;28;20360;-76
2022/07/18 02:53:46;;;;;;;2.93;2.10;;;;;;;;;;5023396;28;20186;-76
2022/07/18 02:56:12;;;;;;;3.53;1.80;;;;;;;;;;5024166;28;20341;-76
2022/07/18 02:58:38;;;;;;;2.57;1.97;;;;;;;;;;5026375;28;20190;-76
2022/07/18 03:01:04;;;;;;;3.17;1.87;;;;;;;;;;5033888;28;20205;-75
2022/07/18 03:03:31;;;;;;;1.90;1.67;;;;;;;;;;5025223;28;20186;-76
2022/07/18 03:05:57;;;;;;;2.77;1.90;;;;;;;;;;5029482;28;20224;-77
2022/07/18 03:08:23;;;;;;;3.07;2.30;;;;;;;;;;5033293;28;20184;-76
2022/07/18 03:10:49;;;;;;;3.43;2.10;;;;;;;;;;5025620;28;20198;-76
2022/07/18 03:13:15;;;;;;;4.60;2.27;;;;;;;;;;5030569;28;20282;-76
2022/07/18 03:15:41;;;;;;;3.03;2.27;;;;;;;;;;5032392;28;20201;-76
2022/07/18 03:18:08;;;;;;;4.00;2.60;;;;;;;;;;5027322;28;20250;-76
2022/07/18 03:20:34;;;;;;;3.80;2.10;;;;;;;;;;5025012;28;20190;-76
2022/07/18 03:23:05;;;;;;;2.47;2.03;;;;;;;;;;5026630;28;20179;-76
2022/07/18 03:25:31;;;;;;;3.43;2.10;;;;;;;;;;5027476;28;20182;-76
2022/07/18 03:27:57;;;;;;;3.50;2.30;;;;;;;;;;5025725;28;20643;-76
2022/07/18 03:30:23;;;;;;;4.40;2.00;;;;;;;;;;5023643;28;20549;-76
2022/07/18 03:32:53;;;;;;;2.70;1.90;;;;;;;;;;5027906;28;20207;-76
2022/07/18 03:35:20;;;;;;;3.07;1.93;;;;;;;;;;5025783;28;20586;-76
2022/07/18 03:37:46;;;;;;;3.57;2.03;;;;;;;;;;5025194;28;20264;-75
2022/07/18 03:40:12;;;;;;;2.30;2.00;;;;;;;;;;5024564;28;20190;-76
2022/07/18 03:42:39;;;;;;;2.73;2.27;;;;;;;;;;5026023;28;20215;-76
2022/07/18 03:45:06;;;;;;;3.63;2.30;;;;;;;;;;5024039;28;20273;-75
2022/07/18 03:47:32;;;;;;;2.10;1.90;;;;;;;;;;5007673;28;20631;-76
2022/07/18 03:49:58;;;;;;;2.67;2.00;;;;;;;;;;5023015;28;20184;-76
2022/07/18 03:52:24;;;;;;;2.97;2.13;;;;;;;;;;5020521;28;20301;-75
2022/07/18 03:54:51;;;;;;;3.67;2.10;;;;;;;;;;5026444;28;20183;-76
2022/07/18 03:57:17;;;;;;;5.70;2.17;;;;;;;;;;5029634;28;20180;-76
2022/07/18 03:59:43;;;;;;;4.00;2.20;;;;;;;;;;5026574;28;20186;-76
2022/07/18 04:02:09;;;;;;;2.30;2.10;;;;;;;;;;5024501;28;20222;-76
2022/07/18 04:04:35;;;;;;;3.90;2.17;;;;;;;;;;5028451;28;20195;-76
2022/07/18 04:07:02;;;;;;;4.13;2.43;;;;;;;;;;5031059;28;20217;-76
2022/07/18 04:09:28;;;;;;;3.70;2.00;;;;;;;;;;5027280;28;20193;-76
2022/07/18 04:11:54;;;;;;;3.43;2.20;;;;;;;;;;5028021;28;20226;-75
2022/07/18 04:14:22;;;;;;;2.43;2.00;;;;;;;;;;5028414;28;20201;-76
2022/07/18 04:16:49;;;;;;;3.47;2.10;;;;;;;;;;5022258;28;20187;-75
2022/07/18 04:19:16;;;;;;;2.03;1.83;;;;;;;;;;5030760;28;20266;-75
2022/07/18 04:21:42;;;;;;;2.23;1.87;;;;;;;;;;5030274;28;20272;-75
2022/07/18 04:24:09;;;;;;;3.20;2.07;;;;;;;;;;5027337;28;20564;-76
2022/07/18 04:26:35;;;;;;;2.40;2.10;;;;;;;;;;5028293;28;20209;-76
2022/07/18 04:29:01;;;;;;;2.90;2.20;;;;;;;;;;5028839;28;20650;-75
2022/07/18 04:31:28;;;;;;;2.93;2.10;;;;;;;;;;5025213;28;20217;-76
2022/07/18 04:33:54;;;;;;;2.93;2.20;;;;;;;;;;5030819;28;20667;-76
2022/07/18 04:36:20;;;;;;;5.50;2.50;;;;;;;;;;5032106;28;20306;-76
2022/07/18 04:38:46;;;;;;;4.53;2.40;;;;;;;;;;5030547;28;20193;-76
2022/07/18 04:41:12;;;;;;;5.40;2.27;;;;;;;;;;5025794;28;20202;-75
2022/07/18 04:43:38;;;;;;;2.80;2.23;;;;;;;;;;5023032;28;20191;-76
2022/07/18 04:46:05;;;;;;;4.33;2.30;;;;;;;;;;5029399;28;20206;-76
2022/07/18 04:48:31;;;;;;;3.60;2.57;;;;;;;;;;5031350;28;20194;-76
2022/07/18 04:50:57;;;;;;;5.37;2.30;;;;;;;;;;5031292;28;20210;-76
2022/07/18 04:53:23;;;;;;;2.80;2.40;;;;;;;;;;5029260;28;20179;-76
2022/07/18 04:55:49;;;;;;;5.67;2.57;;;;;;;;;;5034246;28;20209;-75
2022/07/18 04:58:16;;;;;;;4.30;2.30;;;;;;;;;;5026240;28;20183;-76
2022/07/18 05:00:42;;;;;;;5.27;2.17;;;;;;;;;;5028872;28;20174;-76
2022/07/18 05:03:08;;;;;;;2.90;2.30;;;;;;;;;;5028894;28;20281;-76
2022/07/18 05:05:34;;;;;;;3.93;2.47;;;;;;;;;;5032486;28;20192;-76
2022/07/18 05:08:00;;;;;;;7.13;2.87;;;;;;;;;;5027572;28;20264;-76
2022/07/18 05:10:26;;;;;;;5.03;2.60;;;;;;;;;;5027189;28;20182;-75
2022/07/18 05:12:54;;;;;;;3.20;2.50;;;;;;;;;;5031778;28;20216;-84
2022/07/18 05:15:21;;;;;;;5.93;2.70;;;;;;;;;;5011823;28;20178;-79
2022/07/18 05:17:48;;;;;;;3.80;2.40;;;;;;;;;;5024415;28;20681;-73
2022/07/18 05:20:15;;;;;;;5.03;2.50;;;;;;;;;;5033816;28;20237;-77
2022/07/18 05:22:42;;;;;;;5.17;2.50;;;;;;;;;;5030399;28;20232;-76
2022/07/18 05:25:08;;;;;;;5.93;2.20;;;;;;;;;;5025948;28;20218;-72
2022/07/18 05:27:35;;;;;;;3.20;2.37;;;;;;;;;;5029605;28;20209;-75
2022/07/18 05:30:01;;;;;;;3.97;2.50;;;;;;;;;;5029044;28;20190;-74
2022/07/18 05:32:28;;;;;;;3.60;2.20;;;;;;;;;;5026867;28;20210;-74
2022/07/18 05:34:55;;;;;;;6.70;2.50;;;;;;;;;;5024078;28;20638;-75
2022/07/18 05:37:21;;;;;;;5.07;2.30;;;;;;;;;;5027531;28;20865;-74
2022/07/18 05:39:47;;;;;;;4.77;2.30;;;;;;;;;;5029721;28;20194;-74
2022/07/18 05:42:14;;;;;;;3.90;2.50;;;;;;;;;;5027480;28;20312;-74
2022/07/18 05:44:40;;;;;;;6.47;2.67;;;;;;;;;;5030764;28;20189;-75
2022/07/18 05:47:06;;;;;;;4.67;2.40;;;;;;;;;;5021143;28;20261;-75
2022/07/18 05:49:33;;;;;;;9.53;2.40;;;;;;;;;;5025979;28;20549;-75
2022/07/18 05:51:59;;;;;;;8.37;2.50;;;;;;;;;;5026684;28;20221;-74
2022/07/18 05:54:25;;;;;;;6.90;2.37;;;;;;;;;;5033122;28;20178;-75
2022/07/18 05:56:53;;;;;;;5.83;2.43;;;;;;;;;;5035001;28;20186;-75
2022/07/18 05:59:21;;;;;;;4.90;2.13;;;;;;;;;;5030717;28;20263;-75
2022/07/18 06:01:47;;;;;;;5.43;2.07;;;;;;;;;;5035418;28;20220;-77
2022/07/18 06:04:13;;;;;;;6.37;2.40;;;;;;;;;;5037912;28;20181;-79
2022/07/18 06:06:40;;;;;;;3.00;2.33;;;;;;;;;;5034498;28;20212;-77
2022/07/18 06:09:08;;;;;;;5.07;2.03;;;;;;;;;;5052040;28;20186;-77
2022/07/18 06:11:34;;;;;;;5.73;2.10;;;;;;;;;;5031120;28;20673;-77
2022/07/18 06:14:02;;;;;;;6.30;2.63;;;;;;;;;;5031331;28;20198;-77
2022/07/18 06:16:29;;;;;;;5.17;2.60;;;;;;;;;;5034810;28;20565;-78
2022/07/18 06:18:56;;;;;;;2.87;1.70;;;;;;;;;;5035014;28;20531;-77
2022/07/18 06:21:22;;;;;;;3.63;2.00;;;;;;;;;;5032470;28;20245;-77
2022/07/18 06:23:48;;;;;;;3.13;1.77;;;;;;;;;;5032038;28;20187;-77
2022/07/18 06:26:14;;;;;;;3.63;2.00;;;;;;;;;;5030465;28;20218;-77
2022/07/18 06:28:40;;;;;;;7.30;2.10;;;;;;;;;;5035055;28;20198;-77
2022/07/18 06:31:07;;;;;;;4.70;2.00;;;;;;;;;;5037149;28;20233;-78
2022/07/18 06:33:33;;;;;;;6.13;2.20;;;;;;;;;;5032544;28;20177;-77
2022/07/18 06:35:59;;;;;;;3.33;2.40;;;;;;;;;;5032267;28;20206;-77
2022/07/18 06:38:25;;;;;;;5.30;2.30;;;;;;;;;;5036306;28;20183;-77
2022/07/18 06:40:51;;;;;;;4.60;2.10;;;;;;;;;;5036846;28;20233;-77
2022/07/18 06:43:21;;;;;;;4.97;2.43;;;;;;;;;;5032377;28;20216;-77
2022/07/18 06:45:52;;;;;;;4.73;2.40;;;;;;;;;;5034617;28;20241;-77
2022/07/18 06:48:18;;;;;;;3.47;2.23;;;;;;;;;;5034838;28;20711;-77
2022/07/18 06:50:44;;;;;;;4.60;2.40;;;;;;;;;;5033293;28;20269;-77
2022/07/18 06:53:10;;;;;;;3.07;2.00;;;;;;;;;;5034515;28;21713;-77
2022/07/18 06:55:37;;;;;;;3.07;1.90;;;;;;;;;;5034484;28;20974;-77
2022/07/18 06:58:03;;;;;;;3.40;2.00;;;;;;;;;;5035382;28;20182;-77
2022/07/18 07:00:29;;;;;;;2.60;1.90;;;;;;;;;;5031260;28;20186;-78
2022/07/18 07:02:55;;;;;;;2.63;1.80;;;;;;;;;;5033614;28;20299;-78
2022/07/18 07:05:22;;;;;;;2.77;1.80;;;;;;;;;;5034766;28;20265;-77
2022/07/18 07:07:48;;;;;;;4.20;1.77;;;;;;;;;;5036291;28;20277;-77
2022/07/18 07:10:16;;;;;;;2.77;1.70;;;;;;;;;;5031790;28;20588;-78
2022/07/18 07:12:43;;;;;;;2.27;1.70;;;;;;;;;;5034129;28;20206;-77
2022/07/18 07:15:09;;;;;;;4.67;1.90;;;;;;;;;;5036311;28;20245;-77
2022/07/18 07:17:36;;;;;;;3.77;1.80;;;;;;;;;;5032399;28;20587;-77
2022/07/18 07:20:07;;;;;;;2.40;1.60;;;;;;;;;;5033694;28;20636;-77
2022/07/18 07:22:41;;;;;;;2.80;1.90;;;;;;;;;;5032518;28;20213;-77
2022/07/18 07:25:07;;;;;;;3.00;1.60;;;;;;;;;;5021766;28;20198;-77
2022/07/18 07:27:34;;;;;;;2.30;1.90;;;;;;;;;;5018722;28;20209;-77
2022/07/18 07:30:00;;;;;;;2.20;1.70;;;;;;;;;;5022063;28;20662;-77
2022/07/18 07:32:26;;;;;;;3.70;1.90;;;;;;;;;;5029806;28;20209;-77
2022/07/18 07:34:52;;;;;;;3.87;1.80;;;;;;;;;;5026995;28;20190;-77
2022/07/18 07:37:19;;;;;;;3.10;1.80;;;;;;;;;;5024817;28;20187;-77
2022/07/18 07:39:46;;;;;;;4.87;1.77;;;;;;;;;;5027058;28;20190;-77
2022/07/18 07:42:12;;;;;;;3.43;1.90;;;;;;;;;;5026750;28;20206;-76
2022/07/18 07:44:38;;;;;;;2.70;1.87;;;;;;;;;;5030493;28;20183;-77
2022/07/18 07:47:05;;;;;;;4.00;2.10;;;;;;;;;;5033572;28;20252;-76
2022/07/18 07:49:33;;;;;;;3.07;1.97;;;;;;;;;;5024339;28;20211;-77
2022/07/18 07:52:00;;;;;;;2.67;1.90;;;;;;;;;;5026429;28;20223;-77
2022/07/18 07:54:26;;;;;;;2.33;1.90;;;;;;;;;;5026285;28;20180;-77
2022/07/18 07:56:52;;;;;;;4.50;2.07;;;;;;;;;;5031090;28;20201;-77
2022/07/18 07:59:18;;;;;;;2.00;1.80;;;;;;;;;;5024201;28;20214;-78
2022/07/18 08:01:44;;;;;;;4.00;1.90;;;;;;;;;;5028745;28;20237;-77
2022/07/18 08:04:10;;;;;;;2.50;1.70;;;;;;;;;;5029356;28;20198;-77
2022/07/18 08:06:37;;;;;;;3.30;1.80;;;;;;;;;;5024804;28;20195;-77
2022/07/18 08:09:03;;;;;;;4.47;1.80;;;;;;;;;;5024551;28;20261;-77
2022/07/18 08:11:29;;;;;;;2.33;1.80;;;;;;;;;;5030128;28;20329;-76
2022/07/18 08:13:55;;;;;;;11.10;2.10;;;;;;;;;;5025197;28;20625;-77
2022/07/18 08:16:22;;;;;;;6.30;1.87;;;;;;;;;;5022457;28;20295;-78
2022/07/18 08:18:48;;;;;;;4.03;1.90;;;;;;;;;;5028799;28;20218;-77
2022/07/18 08:21:14;;;;;;;3.80;1.90;;;;;;;;;;5027669;28;20230;-77
2022/07/18 08:23:40;;;;;;;5.00;1.97;;;;;;;;;;5030501;28;20179;-77
2022/07/18 08:26:06;;;;;;;3.93;2.10;;;;;;;;;;5032374;28;20275;-77
2022/07/18 08:28:33;;;;;;;3.33;1.80;;;;;;;;;;5028678;28;20178;-77
2022/07/18 08:30:59;;;;;;;4.37;1.80;;;;;;;;;;5028508;28;20214;-77
2022/07/18 08:33:26;;;;;;;6.07;1.87;;;;;;;;;;5028531;28;20399;-77
2022/07/18 08:35:52;;;;;;;7.43;2.20;;;;;;;;;;5026596;28;20572;-77
2022/07/18 08:38:18;;;;;;;5.03;1.90;;;;;;;;;;5030431;28;20178;-77
2022/07/18 08:40:47;;;;;;;1.83;1.63;;;;;;;;;;5030523;28;20201;-77
2022/07/18 08:43:15;;;;;;;2.70;1.77;;;;;;;;;;5033284;28;20174;-78
2022/07/18 08:45:44;;;;;;;4.23;1.80;;;;;;;;;;5034140;28;20719;-78
2022/07/18 08:48:13;;;;;;;5.63;1.60;;;;;;;;;;5034105;28;20271;-77
2022/07/18 08:50:41;;;;;;;5.40;1.70;;;;;;;;;;5034191;28;20272;-78
2022/07/18 08:53:08;;;;;;;6.23;1.70;;;;;;;;;;5034825;28;20194;-78
2022/07/18 08:55:34;;;;;;;2.87;1.70;;;;;;;;;;5037190;28;20187;-78
2022/07/18 08:58:00;;;;;;;5.20;1.70;;;;;;;;;;5030684;28;20187;-78
2022/07/18 09:00:26;;;;;;;3.67;1.60;;;;;;;;;;5033265;28;20274;-77
2022/07/18 09:03:03;;;;;;;4.13;1.60;;;;;;;;;;5031711;28;20214;-78
2022/07/18 09:05:29;;;;;;;3.83;2.07;;;;;;;;;;5025664;28;20821;-78
2022/07/18 09:08:13;;;;;;;2.73;1.70;;;;;;;;;;5025091;28;20214;-77
2022/07/18 09:10:58;;;;;;;3.23;1.70;;;;;;;;;;5029753;28;20186;-78
2022/07/18 09:13:36;;;;;;;1.90;1.70;;;;;;;;;;5026149;28;20556;-77
2022/07/18 09:16:09;;;;;;;2.80;1.70;;;;;;;;;;5029533;28;20557;-78
2022/07/18 09:18:38;;;;;;;2.40;1.47;;;;;;;;;;5026590;28;20217;-77
2022/07/18 09:21:04;;;;;;;2.40;1.50;;;;;;;;;;5022244;28;20538;-77
2022/07/18 09:23:32;;;;;;;3.40;1.70;;;;;;;;;;5020095;28;20925;-78
2022/07/18 09:25:59;;;;;;;3.00;1.60;;;;;;;;;;5025283;28;20193;-78
2022/07/18 09:28:26;;;;;;;4.83;1.77;;;;;;;;;;5020727;28;20195;-78
2022/07/18 09:30:52;;;;;;;1.70;1.30;;;;;;;;;;5030058;28;20555;-77
2022/07/18 09:33:20;;;;;;;3.13;1.43;;;;;;;;;;5028015;28;20192;-78
2022/07/18 09:35:47;;;;;;;1.40;1.30;;;;;;;;;;5022788;28;20235;-78
2022/07/18 09:38:15;;;;;;;2.93;1.30;;;;;;;;;;5020833;28;20259;-78
2022/07/18 09:40:45;;;;;;;3.63;1.40;;;;;;;;;;5022379;28;20301;-78
2022/07/18 09:43:12;;;;;;;2.07;1.67;;;;;;;;;;5020155;28;20222;-78
2022/07/18 09:45:47;;;;;;;4.07;1.80;;;;;;;;;;5021224;28;20185;-77
2022/07/18 09:48:20;;;;;;;3.20;1.40;;;;;;;;;;5020380;28;20269;-78
2022/07/18 09:50:58;;;;;;;2.67;1.57;;;;;;;;;;5018962;28;20237;-78
2022/07/18 09:53:26;;;;;;;4.73;1.40;;;;;;;;;;5018473;28;20253;-77
2022/07/18 09:55:53;;;;;;;1.57;1.20;;;;;;;;;;5024662;28;20890;-78
2022/07/18 09:58:23;;;;;;;3.77;1.43;;;;;;;;;;5028649;28;20651;-78
2022/07/18 10:00:50;;;;;;;2.43;1.53;;;;;;;;;;5032536;28;20179;-78
2022/07/18 10:03:16;;;;;;;3.23;1.60;;;;;;;;;;5027585;28;20181;-77
2022/07/18 10:05:43;;;;;;;1.90;1.60;;;;;;;;;;5028050;28;20623;-74
2022/07/18 10:08:11;;;;;;;3.37;1.47;;;;;;;;;;5024154;28;20587;-77
2022/07/18 10:10:38;;;;;;;2.13;1.50;;;;;;;;;;5022167;28;20673;-77
2022/07/18 10:13:05;;;;;;;2.50;1.40;;;;;;;;;;5027867;28;20616;-78
2022/07/18 10:15:33;;;;;;;1.60;1.40;;;;;;;;;;5023852;28;20716;-76
2022/07/18 10:18:00;;;;;;;3.27;1.50;;;;;;;;;;5029301;28;20197;-76
2022/07/18 10:20:27;;;;;;;2.97;1.60;;;;;;;;;;5027189;28;20688;-76
2022/07/18 10:22:57;;;;;;;2.40;1.50;;;;;;;;;;5024865;28;20320;-79
2022/07/18 10:25:28;;;;;;;3.63;1.30;;;;;;;;;;5027398;28;20185;-79
2022/07/18 10:27:55;;;;;;;3.23;1.50;;;;;;;;;;5012140;28;20599;-77
2022/07/18 10:30:42;;;;;;;3.63;1.57;;;;;;;;;;5028550;28;21459;-78
2022/07/18 10:33:27;;;;;;;2.57;1.50;;;;;;;;;;4994675;28;20182;-79
2022/07/18 10:36:01;;;;;;;2.43;1.50;;;;;;;;;;5019567;28;20646;-77
2022/07/18 10:38:28;;;;;;;2.57;1.50;;;;;;;;;;5028641;28;20197;-78
2022/07/18 10:41:10;;;;;;;3.07;1.40;;;;;;;;;;5023425;28;20243;-79
2022/07/18 10:43:38;;;;;;;2.23;1.30;;;;;;;;;;5045138;28;20232;-81
2022/07/18 10:46:05;;;;;;;3.07;1.50;;;;;;;;;;5030308;28;20166;-79
2022/07/18 10:48:36;;;;;;;2.17;1.50;;;;;;;;;;5031059;28;20224;-80
2022/07/18 10:51:03;;;;;;;2.60;1.60;;;;;;;;;;5026325;28;20200;-83
2022/07/18 10:53:49;;;;;;;2.77;1.60;;;;;;;;;;5027285;28;20172;-80
2022/07/18 10:56:15;;;;;;;3.10;1.40;;;;;;;;;;5024546;28;20202;-79
2022/07/18 10:58:42;;;;;;;2.60;1.60;;;;;;;;;;5032166;28;20320;-77
2022/07/18 11:01:14;;;;;;;3.70;1.40;;;;;;;;;;5026198;28;20214;-79
2022/07/18 11:03:40;;;;;;;1.90;1.70;;;;;;;;;;5029768;28;20535;-81
2022/07/18 11:06:06;;;;;;;1.80;1.30;;;;;;;;;;5030156;28;20195;-75
2022/07/18 11:08:33;;;;;;;2.50;1.50;;;;;;;;;;5032380;28;20192;-77
2022/07/18 11:11:02;;;;;;;1.80;1.47;;;;;;;;;;5027430;28;20204;-77
2022/07/18 11:13:28;;;;;;;3.80;1.60;;;;;;;;;;5030452;28;20556;-75
2022/07/18 11:15:58;;;;;;;2.83;1.60;;;;;;;;;;5029200;28;20314;-74
2022/07/18 11:18:25;;;;;;;3.07;1.60;;;;;;;;;;5030796;28;20331;-75
2022/07/18 11:20:51;;;;;;;3.73;1.47;;;;;;;;;;5032810;28;20179;-73
2022/07/18 11:23:17;;;;;;;2.87;1.60;;;;;;;;;;5026763;28;20278;-73
2022/07/18 11:25:44;;;;;;;1.67;1.57;;;;;;;;;;5032457;28;20595;-74
2022/07/18 11:28:11;;;;;;;1.50;1.23;;;;;;;;;;5032951;28;20250;-73
2022/07/18 11:30:38;;;;;;;3.60;1.57;;;;;;;;;;5032426;28;20196;-73
2022/07/18 11:33:05;;;;;;;2.10;1.60;;;;;;;;;;5034885;28;20212;-74
2022/07/18 11:35:31;;;;;;;2.10;1.70;;;;;;;;;;5035023;28;20176;-77
2022/07/18 11:38:04;;;;;;;5.27;1.70;;;;;;;;;;5032033;28;20191;-78
2022/07/18 11:40:30;;;;;;;3.60;1.67;;;;;;;;;;5032376;28;20194;-80
2022/07/18 11:42:57;;;;;;;1.93;1.40;;;;;;;;;;5027405;28;20196;-78
2022/07/18 11:45:23;;;;;;;3.03;1.40;;;;;;;;;;5032218;28;20592;-78
2022/07/18 11:47:50;;;;;;;1.50;1.30;;;;;;;;;;5035174;28;20915;-79
2022/07/18 11:50:17;;;;;;;2.27;1.67;;;;;;;;;;5040917;28;20178;-81
2022/07/18 11:52:44;;;;;;;1.87;1.50;;;;;;;;;;5033455;28;20219;-79
2022/07/18 11:55:13;;;;;;;1.87;1.60;;;;;;;;;;5035163;28;20178;-79
2022/07/18 11:57:40;;;;;;;2.63;1.57;;;;;;;;;;5034356;28;20192;-76
2022/07/18 12:00:17;;;;;;;1.83;1.27;;;;;;;;;;5036584;28;20192;-77
2022/07/18 12:03:02;;;;;;;2.47;1.40;;;;;;;;;;5033462;28;20243;-79
2022/07/18 12:05:35;;;;;;;3.10;1.50;;;;;;;;;;5020248;28;20261;-76
2022/07/18 12:08:01;;;;;;;2.43;1.50;;;;;;;;;;5022937;28;20914;-76
2022/07/18 12:10:27;;;;;;;4.07;1.50;;;;;;;;;;5024704;28;20184;-78
2022/07/18 12:12:54;;;;;;;2.03;1.60;;;;;;;;;;5028072;28;20203;-79
2022/07/18 12:15:20;;;;;;;2.90;1.53;;;;;;;;;;5011541;28;20206;-81
2022/07/18 12:17:50;;;;;;;2.63;1.50;;;;;;;;;;5032220;28;20668;-82
2022/07/18 12:20:18;;;;;;;2.03;1.50;;;;;;;;;;5032507;28;20561;-81
2022/07/18 12:23:02;;;;;;;3.60;1.43;;;;;;;;;;5031485;28;20202;-82
2022/07/18 12:25:38;;;;;;;1.83;1.30;;;;;;;;;;5026777;28;20210;-81
2022/07/18 12:28:18;;;;;;;3.87;1.50;;;;;;;;;;5033513;28;20263;-81
2022/07/18 12:30:45;;;;;;;2.27;1.50;;;;;;;;;;5033329;28;20302;-81
2022/07/18 12:33:11;;;;;;;1.37;1.27;;;;;;;;;;5036886;28;20184;-80
2022/07/18 12:35:38;;;;;;;1.77;1.50;;;;;;;;;;5032024;28;20203;-82
2022/07/18 12:38:08;;;;;;;1.57;1.30;;;;;;;;;;5029170;28;20181;-81
2022/07/18 12:40:45;;;;;;;1.67;1.50;;;;;;;;;;5033529;28;20186;-81
2022/07/18 12:43:31;;;;;;;2.83;1.50;;;;;;;;;;5033694;28;20185;-82
2022/07/18 12:45:58;;;;;;;1.53;1.30;;;;;;;;;;5024922;28;20193;-82
2022/07/18 12:48:24;;;;;;;3.40;1.50;;;;;;;;;;5035633;28;20190;-82
2022/07/18 12:50:58;;;;;;;3.13;1.33;;;;;;;;;;5034164;28;20193;-82
2022/07/18 12:53:24;;;;;;;3.53;1.50;;;;;;;;;;5027018;28;20272;-81
2022/07/18 12:55:51;;;;;;;1.27;1.17;;;;;;;;;;5033743;28;20243;-82
2022/07/18 12:58:17;;;;;;;1.65;1.50;;;;;;;;;;5029810;28;20182;-81
2022/07/18 13:00:44;;;;;;;3.13;1.38;;;;;;;;;;5029155;28;20540;-82
2022/07/18 13:03:10;;;;;;;2.60;1.40;;;;;;;;;;5027357;28;20228;-82
2022/07/18 13:05:36;;;;;;;2.35;1.30;;;;;;;;;;5033650;28;20189;-82
2022/07/18 13:08:02;;;;;;;2.47;1.48;;;;;;;;;;5025866;28;20241;-82
2022/07/18 13:10:29;;;;;;;3.70;1.45;;;;;;;;;;5032704;28;20186;-82
2022/07/18 13:12:55;;;;;;;1.52;1.20;;;;;;;;;;5034244;28;20992;-82
2022/07/18 13:15:22;;;;;;;1.35;1.25;;;;;;;;;;5034196;28;20171;-82
2022/07/18 13:17:49;;;;;;;2.65;1.50;;;;;;;;;;5033922;28;20672;-82
2022/07/18 13:20:16;;;;;;;1.80;1.40;;;;;;;;;;5026435;28;20198;-82
2022/07/18 13:22:42;;;;;;;1.98;1.38;;;;;;;;;;5031331;28;20247;-82
2022/07/18 13:25:10;;;;;;;2.40;1.30;;;;;;;;;;5026958;28;20184;-82
2022/07/18 13:27:37;;;;;;;1.42;1.20;;;;;;;;;;5035512;28;20733;-82
2022/07/18 13:30:08;;;;;;;1.77;1.10;;;;;;;;;;5021941;28;20190;-82
2022/07/18 13:32:34;;;;;;;1.40;1.17;;;;;;;;;;5032899;28;21502;-82
2022/07/18 13:35:01;;;;;;;2.22;1.25;;;;;;;;;;5024036;28;20224;-82
2022/07/18 13:37:27;;;;;;;1.23;1.10;;;;;;;;;;5032909;28;20192;-82
2022/07/18 13:39:53;;;;;;;2.65;1.15;;;;;;;;;;5031069;28;20187;-82
2022/07/18 13:42:20;;;;;;;2.30;1.30;;;;;;;;;;5031860;28;20535;-82
2022/07/18 13:44:46;;;;;;;3.63;1.30;;;;;;;;;;5034705;28;20193;-82
2022/07/18 13:47:13;;;;;;;4.05;1.55;;;;;;;;;;5030754;28;20203;-82
2022/07/18 13:49:39;;;;;;;4.68;1.55;;;;;;;;;;5028938;28;20217;-82
2022/07/18 13:52:05;;;;;;;2.25;1.30;;;;;;;;;;5031049;28;20694;-82
2022/07/18 13:54:32;;;;;;;3.05;1.48;;;;;;;;;;5032645;28;20179;-82
2022/07/18 13:56:58;;;;;;;3.42;1.52;;;;;;;;;;5013498;28;20190;-82
2022/07/18 13:59:24;;;;;;;2.20;1.40;;;;;;;;;;5022895;28;20187;-82
2022/07/18 14:01:50;;;;;;;2.80;1.23;;;;;;;;;;5027523;28;20673;-82
2022/07/18 14:04:18;;;;;;;1.58;1.48;;;;;;;;;;5028203;28;20185;-83
2022/07/18 14:06:44;;;;;;;1.38;1.23;;;;;;;;;;5027098;28;20226;-82
2022/07/18 14:09:11;;;;;;;1.83;1.58;;;;;;;;;;5026463;28;20186;-82
2022/07/18 14:11:37;;;;;;;1.40;1.30;;;;;;;;;;5030298;28;20205;-82
2022/07/18 14:14:04;;;;;;;2.58;1.50;;;;;;;;;;5031138;28;20278;-82
2022/07/18 14:16:31;;;;;;;1.65;1.52;;;;;;;;;;5031470;28;20658;-82
2022/07/18 14:18:57;;;;;;;1.60;1.50;;;;;;;;;;5031185;28;20221;-82
2022/07/18 14:21:24;;;;;;;1.50;1.40;;;;;;;;;;5030199;28;20214;-82
2022/07/18 14:23:50;;;;;;;1.40;1.30;;;;;;;;;;5027509;28;20186;-82
2022/07/18 14:26:16;;;;;;;4.43;1.83;;;;;;;;;;5028982;28;20324;-82
2022/07/18 14:28:43;;;;;;;1.98;1.60;;;;;;;;;;5025080;28;20244;-80
2022/07/18 14:31:09;;;;;;;1.98;1.52;;;;;;;;;;5023768;28;20201;-80
2022/07/18 14:33:35;;;;;;;1.83;1.58;;;;;;;;;;5032043;28;20190;-80
2022/07/18 14:36:01;;;;;;;2.58;1.50;;;;;;;;;;5027130;28;20524;-80
2022/07/18 14:38:27;;;;;;;2.33;1.40;;;;;;;;;;5025432;28;20183;-80
2022/07/18 14:40:54;;;;;;;3.85;1.50;;;;;;;;;;5025017;28;20343;-82
2022/07/18 14:43:20;;;;;;;2.00;1.50;;;;;;;;;;5030389;28;20240;-80
2022/07/18 14:45:48;;;;;;;1.73;1.60;;;;;;;;;;5029792;28;20195;-81
2022/07/18 14:48:15;;;;;;;1.60;1.40;;;;;;;;;;5025311;28;20224;-80